createdAt,value
2023-02-19T00:01:47.585Z,100417.09
2023-02-19T00:04:22.024Z,100407.81
2023-02-19T00:06:49.987Z,100414.47
2023-02-19T00:09:20.533Z,100409.44
2023-02-19T00:11:48.584Z,100401.25
2023-02-19T00:14:18.866Z,100412.09
2023-02-19T00:16:46.998Z,100401.53
2023-02-19T00:19:18.114Z,100409.38
2023-02-19T00:21:45.894Z,100414.47
2023-02-19T00:24:14.415Z,100408.84
2023-02-19T00:26:44.479Z,100412.72
2023-02-19T00:29:30.008Z,100415.91
2023-02-19T00:31:57.508Z,100413.06
2023-02-19T00:34:25.350Z,100406.63
2023-02-19T00:36:52.994Z,100401.44
2023-02-19T00:39:21.540Z,100406.41
2023-02-19T00:41:48.941Z,100410.59
2023-02-19T00:44:17.990Z,100407.00
2023-02-19T00:46:47.558Z,100411.53
2023-02-19T00:49:21.107Z,100405.59
2023-02-19T00:51:51.707Z,100401.47
2023-02-19T00:54:22.564Z,100393.09
2023-02-19T00:56:51.265Z,100395.09
2023-02-19T00:59:18.764Z,100397.06
2023-02-19T01:01:46.182Z,100393.09
2023-02-19T01:04:14.063Z,100393.19
2023-02-19T01:06:41.926Z,100391.44
2023-02-19T01:09:09.546Z,100386.84
2023-02-19T01:11:37.532Z,100398.03
2023-02-19T01:14:05.623Z,100378.38
2023-02-19T01:16:33.158Z,100376.94
2023-02-19T01:19:00.990Z,100373.69
2023-02-19T01:21:30.110Z,100373.47
2023-02-19T01:23:58.584Z,100372.78
2023-02-19T01:26:29.460Z,100375.59
2023-02-19T01:28:57.475Z,100375.06
2023-02-19T01:31:25.888Z,100372.78
2023-02-19T01:33:56.351Z,100362.84
2023-02-19T01:36:24.329Z,100372.25
2023-02-19T01:38:51.726Z,100384.97
2023-02-19T01:41:24.790Z,100376.53
2023-02-19T01:43:58.310Z,100369.41
2023-02-19T01:46:46.440Z,100376.06
2023-02-19T01:49:20.977Z,100378.81
2023-02-19T01:51:59.330Z,100374.16
2023-02-19T01:54:31.631Z,100375.84
2023-02-19T01:57:03.384Z,100370.59
2023-02-19T01:59:33.332Z,100367.84
2023-02-19T02:02:01.024Z,100363.59
2023-02-19T02:04:31.151Z,100374.72
2023-02-19T02:07:01.352Z,100375.50
2023-02-19T02:09:49.668Z,100377.78
2023-02-19T02:12:17.674Z,100384.31
2023-02-19T02:14:48.363Z,100390.72
2023-02-19T02:17:26.031Z,100382.41
2023-02-19T02:20:22.606Z,100383.81
2023-02-19T02:23:09.066Z,100399.75
2023-02-19T02:25:58.695Z,100394.03
2023-02-19T02:28:57.431Z,100387.72
2023-02-19T02:31:36.133Z,100392.44
2023-02-19T02:34:27.426Z,100393.19
2023-02-19T02:36:57.451Z,100392.75
2023-02-19T02:39:28.377Z,100394.44
2023-02-19T02:42:18.546Z,100391.31
2023-02-19T02:45:04.814Z,100401.69
2023-02-19T02:47:43.387Z,100401.13
2023-02-19T02:50:24.332Z,100406.66
2023-02-19T02:53:16.972Z,100412.38
2023-02-19T02:55:49.248Z,100410.81
2023-02-19T02:58:18.143Z,100416.41
2023-02-19T03:01:08.013Z,100414.28
2023-02-19T03:03:39.683Z,100416.50
2023-02-19T03:06:12.325Z,100419.47
2023-02-19T03:09:23.445Z,100415.66
2023-02-19T03:12:16.787Z,100420.16
2023-02-19T03:15:09.644Z,100426.81
2023-02-19T03:18:07.651Z,100423.31
2023-02-19T03:20:40.387Z,100422.34
2023-02-19T03:23:13.018Z,100425.97
2023-02-19T03:26:00.454Z,100429.06
2023-02-19T03:28:51.027Z,100434.94
2023-02-19T03:31:24.170Z,100433.88
2023-02-19T03:33:56.174Z,100432.34
2023-02-19T03:36:27.546Z,100432.16
2023-02-19T03:39:07.298Z,100430.50
2023-02-19T03:42:04.265Z,100441.81
2023-02-19T03:45:07.902Z,100447.97
2023-02-19T03:47:51.097Z,100444.75
2023-02-19T03:50:25.709Z,100441.72
2023-02-19T03:53:34.439Z,100445.31
2023-02-19T03:56:10.722Z,100439.84
2023-02-19T03:59:08.670Z,100445.06
2023-02-19T04:01:44.836Z,100442.84
2023-02-19T04:04:27.531Z,100436.72
2023-02-19T04:06:58.954Z,100438.16
2023-02-19T04:09:50.921Z,100438.91
2023-02-19T04:12:21.621Z,100441.25
2023-02-19T04:15:00.836Z,100442.78
2023-02-19T04:17:56.623Z,100438.03
2023-02-19T04:20:28.319Z,100434.38
2023-02-19T04:22:57.197Z,100433.25
2023-02-19T04:25:27.315Z,100427.84
2023-02-19T04:27:54.864Z,100422.34
2023-02-19T04:30:22.665Z,100421.84
2023-02-19T04:32:51.092Z,100417.66
2023-02-19T04:35:20.185Z,100414.84
2023-02-19T04:37:48.235Z,100417.84
2023-02-19T04:40:15.763Z,100421.56
2023-02-19T04:42:43.321Z,100419.19
2023-02-19T04:45:10.827Z,100420.75
2023-02-19T04:47:40.135Z,100427.41
2023-02-19T04:50:08.165Z,100426.41
2023-02-19T04:52:35.780Z,100426.56
2023-02-19T04:55:03.476Z,100426.53
2023-02-19T04:57:31.127Z,100436.00
2023-02-19T04:59:59.160Z,100433.00
2023-02-19T05:02:27.443Z,100443.38
2023-02-19T05:04:54.823Z,100444.34
2023-02-19T05:07:22.271Z,100435.69
2023-02-19T05:09:50.290Z,100437.94
2023-02-19T05:12:17.763Z,100431.63
2023-02-19T05:14:45.291Z,100441.38
2023-02-19T05:17:12.791Z,100441.94
2023-02-19T05:19:45.964Z,100453.41
2023-02-19T05:22:14.271Z,100458.81
2023-02-19T05:24:41.594Z,100459.44
2023-02-19T05:27:09.254Z,100456.78
2023-02-19T05:29:36.646Z,100451.53
2023-02-19T05:32:04.367Z,100453.06
2023-02-19T05:34:31.859Z,100455.00
2023-02-19T05:36:59.351Z,100446.47
2023-02-19T05:39:27.201Z,100452.19
2023-02-19T05:41:54.636Z,100462.66
2023-02-19T05:44:22.066Z,100451.75
2023-02-19T05:46:49.425Z,100455.81
2023-02-19T05:49:17.447Z,100443.19
2023-02-19T05:51:45.948Z,100448.59
2023-02-19T05:54:13.384Z,100433.91
2023-02-19T05:56:42.882Z,100435.78
2023-02-19T05:59:21.793Z,100442.69
2023-02-19T06:01:51.992Z,100444.19
2023-02-19T06:04:20.523Z,100447.88
2023-02-19T06:06:49.208Z,100452.69
2023-02-19T06:09:17.147Z,100448.56
2023-02-19T06:11:45.014Z,100441.44
2023-02-19T06:14:13.998Z,100439.22
2023-02-19T06:16:42.255Z,100434.22
2023-02-19T06:19:12.310Z,100434.72
2023-02-19T06:21:39.717Z,100435.22
2023-02-19T06:24:08.984Z,100429.78
2023-02-19T06:26:38.386Z,100431.31
2023-02-19T06:29:05.811Z,100435.88
2023-02-19T06:31:33.706Z,100445.09
2023-02-19T06:34:04.710Z,100456.56
2023-02-19T06:36:32.090Z,100456.34
2023-02-19T06:39:00.516Z,100462.59
2023-02-19T06:41:28.252Z,100466.09
2023-02-19T06:43:58.106Z,100466.13
2023-02-19T06:46:30.170Z,100463.16
2023-02-19T06:48:57.843Z,100474.53
2023-02-19T06:51:27.259Z,100466.53
2023-02-19T06:53:54.853Z,100469.00
2023-02-19T06:56:32.006Z,100466.13
2023-02-19T06:59:02.692Z,100458.75
2023-02-19T07:01:32.187Z,100458.84
2023-02-19T07:04:02.978Z,100465.47
2023-02-19T07:06:31.350Z,100458.09
2023-02-19T07:09:00.463Z,100451.56
2023-02-19T07:11:31.197Z,100459.56
2023-02-19T07:14:00.268Z,100457.28
2023-02-19T07:16:28.137Z,100461.19
2023-02-19T07:19:00.238Z,100458.19
2023-02-19T07:21:31.560Z,100461.63
2023-02-19T07:23:59.118Z,100463.69
2023-02-19T07:26:27.834Z,100455.06
2023-02-19T07:28:55.239Z,100458.66
2023-02-19T07:31:24.798Z,100458.72
2023-02-19T07:33:52.726Z,100467.81
2023-02-19T07:36:21.820Z,100469.63
2023-02-19T07:38:58.871Z,100472.84
2023-02-19T07:41:27.263Z,100469.16
2023-02-19T07:43:58.516Z,100476.28
2023-02-19T07:46:26.306Z,100482.56
2023-02-19T07:49:00.299Z,100482.75
2023-02-19T07:51:28.007Z,100477.31
2023-02-19T07:53:55.427Z,100481.28
2023-02-19T07:56:22.895Z,100484.03
2023-02-19T07:58:50.840Z,100475.72
2023-02-19T08:01:41.188Z,100482.22
2023-02-19T08:04:10.821Z,100476.34
2023-02-19T08:06:40.354Z,100485.09
2023-02-19T08:09:08.159Z,100477.22
2023-02-19T08:12:00.963Z,100478.97
2023-02-19T08:14:29.675Z,100485.00
2023-02-19T08:16:57.365Z,100501.84
2023-02-19T08:19:25.775Z,100496.41
2023-02-19T08:21:53.746Z,100489.84
2023-02-19T08:24:21.305Z,100488.53
2023-02-19T08:26:50.111Z,100480.19
2023-02-19T08:29:17.886Z,100488.38
2023-02-19T08:31:45.609Z,100489.22
2023-02-19T08:34:13.440Z,100490.84
2023-02-19T08:36:40.771Z,100504.53
2023-02-19T08:39:08.316Z,100506.03
2023-02-19T08:41:36.240Z,100491.09
2023-02-19T08:44:04.119Z,100507.78
2023-02-19T08:46:35.917Z,100507.66
2023-02-19T08:49:03.983Z,100508.91
2023-02-19T08:51:31.619Z,100506.88
2023-02-19T08:53:58.990Z,100498.41
2023-02-19T08:56:26.384Z,100504.38
2023-02-19T08:58:53.864Z,100502.16
2023-02-19T09:01:22.152Z,100508.34
2023-02-19T09:03:50.065Z,100502.22
2023-02-19T09:06:20.167Z,100507.13
2023-02-19T09:08:49.175Z,100502.16
2023-02-19T09:11:17.158Z,100509.81
2023-02-19T09:13:44.765Z,100509.75
2023-02-19T09:16:13.478Z,100517.56
2023-02-19T09:18:41.095Z,100514.25
2023-02-19T09:21:08.707Z,100514.63
2023-02-19T09:23:37.471Z,100510.78
2023-02-19T09:26:09.404Z,100509.25
2023-02-19T09:28:39.775Z,100511.59
2023-02-19T09:31:10.138Z,100516.09
2023-02-19T09:33:38.230Z,100503.06
2023-02-19T09:36:06.044Z,100507.59
2023-02-19T09:38:34.169Z,100501.38
2023-02-19T09:41:09.200Z,100497.88
2023-02-19T09:43:38.038Z,100496.78
2023-02-19T09:46:37.067Z,100488.78
2023-02-19T09:49:13.546Z,100488.66
2023-02-19T09:51:46.364Z,100482.78
2023-02-19T09:54:32.094Z,100475.97
2023-02-19T09:57:02.804Z,100467.28
2023-02-19T09:59:44.280Z,100475.03
2023-02-19T10:02:22.265Z,100476.41
2023-02-19T10:04:51.424Z,100477.75
2023-02-19T10:07:25.782Z,100480.53
2023-02-19T10:10:02.820Z,100471.81
2023-02-19T10:12:32.305Z,100469.78
2023-02-19T10:15:12.397Z,100462.63
2023-02-19T10:17:39.964Z,100458.72
2023-02-19T10:20:10.500Z,100455.19
2023-02-19T10:22:38.561Z,100461.66
2023-02-19T10:25:06.852Z,100451.31
2023-02-19T10:27:34.689Z,100457.41
2023-02-19T10:30:02.604Z,100446.09
2023-02-19T10:32:30.319Z,100455.72
2023-02-19T10:35:15.772Z,100453.56
2023-02-19T10:37:51.701Z,100453.16
2023-02-19T10:40:23.057Z,100451.00
2023-02-19T10:42:54.814Z,100458.53
2023-02-19T10:45:40.788Z,100463.50
2023-02-19T10:48:24.887Z,100470.47
2023-02-19T10:50:58.200Z,100459.53
2023-02-19T10:53:45.507Z,100461.28
2023-02-19T10:56:28.913Z,100462.03
2023-02-19T10:59:13.804Z,100461.28
2023-02-19T11:01:57.762Z,100462.81
2023-02-19T11:04:29.234Z,100463.91
2023-02-19T11:06:57.845Z,100482.63
2023-02-19T11:09:36.088Z,100475.56
2023-02-19T11:12:05.815Z,100487.22
2023-02-19T11:14:35.029Z,100488.09
2023-02-19T11:17:05.691Z,100488.81
2023-02-19T11:19:36.899Z,100471.31
2023-02-19T11:22:31.698Z,100463.00
2023-02-19T11:25:06.895Z,100473.97
2023-02-19T11:27:34.735Z,100466.59
2023-02-19T11:30:41.526Z,100462.81
2023-02-19T11:33:22.368Z,100465.59
2023-02-19T11:35:55.561Z,100464.00
2023-02-19T11:38:23.735Z,100449.31
2023-02-19T11:41:05.344Z,100454.59
2023-02-19T11:44:07.322Z,100453.31
2023-02-19T11:47:14.226Z,100460.28
2023-02-19T11:50:00.486Z,100459.84
2023-02-19T11:52:56.572Z,100453.97
2023-02-19T11:55:49.999Z,100450.03
2023-02-19T11:58:51.628Z,100456.31
2023-02-19T12:01:49.321Z,100459.34
2023-02-19T12:04:37.915Z,100462.88
2023-02-19T12:07:43.008Z,100470.31
2023-02-19T12:10:20.270Z,100473.97
2023-02-19T12:13:06.049Z,100479.09
2023-02-19T12:15:51.369Z,100477.38
2023-02-19T12:18:53.564Z,100479.84
2023-02-19T12:21:32.797Z,100480.16
2023-02-19T12:24:42.635Z,100485.47
2023-02-19T12:27:25.963Z,100479.69
2023-02-19T12:30:18.710Z,100464.53
2023-02-19T12:33:05.536Z,100465.75
2023-02-19T12:35:33.643Z,100458.19
2023-02-19T12:38:12.201Z,100455.13
2023-02-19T12:40:49.410Z,100457.25
2023-02-19T12:43:18.829Z,100458.00
2023-02-19T12:46:01.742Z,100466.22
2023-02-19T12:48:53.508Z,100482.91
2023-02-19T12:51:35.526Z,100478.38
2023-02-19T12:54:21.296Z,100473.69
2023-02-19T12:57:06.382Z,100483.78
2023-02-19T12:59:57.526Z,100484.94
2023-02-19T13:02:24.876Z,100486.38
2023-02-19T13:05:11.134Z,100489.94
2023-02-19T13:07:45.692Z,100487.22
2023-02-19T13:10:16.594Z,100481.03
2023-02-19T13:12:47.009Z,100487.41
2023-02-19T13:15:34.940Z,100484.13
2023-02-19T13:18:07.810Z,100478.63
2023-02-19T13:20:42.602Z,100481.69
2023-02-19T13:23:43.876Z,100482.13
2023-02-19T13:26:14.661Z,100489.47
2023-02-19T13:28:50.976Z,100495.31
2023-02-19T13:31:47.162Z,100510.38
2023-02-19T13:34:45.647Z,100504.91
2023-02-19T13:37:13.210Z,100507.28
2023-02-19T13:39:50.050Z,100509.16
2023-02-19T13:42:31.183Z,100502.91
2023-02-19T13:45:00.223Z,100501.66
2023-02-19T13:47:48.454Z,100503.25
2023-02-19T13:50:25.392Z,100497.97
2023-02-19T13:52:57.407Z,100500.78
2023-02-19T13:55:43.223Z,100491.97
2023-02-19T13:58:32.867Z,100484.88
2023-02-19T14:01:02.496Z,100477.41
2023-02-19T14:04:05.885Z,100483.13
2023-02-19T14:07:04.366Z,100478.75
2023-02-19T14:09:41.717Z,100473.50
2023-02-19T14:12:15.018Z,100477.22
2023-02-19T14:14:47.135Z,100473.22
2023-02-19T14:17:27.069Z,100471.25
2023-02-19T14:19:57.257Z,100457.94
2023-02-19T14:22:46.600Z,100463.47
2023-02-19T14:25:32.127Z,100475.69
2023-02-19T14:28:20.943Z,100489.53
2023-02-19T14:30:50.721Z,100490.03
2023-02-19T14:33:23.645Z,100480.72
2023-02-19T14:36:00.119Z,100476.41
2023-02-19T14:38:35.802Z,100473.06
2023-02-19T14:41:04.619Z,100477.97
2023-02-19T14:43:34.950Z,100471.44
2023-02-19T14:46:10.015Z,100466.41
2023-02-19T14:48:46.474Z,100461.72
2023-02-19T14:51:33.623Z,100473.81
2023-02-19T14:54:11.876Z,100465.44
2023-02-19T14:56:51.115Z,100469.81
2023-02-19T14:59:31.309Z,100467.47
2023-02-19T15:02:02.404Z,100473.81
2023-02-19T15:04:37.056Z,100474.19
2023-02-19T15:07:08.821Z,100465.81
2023-02-19T15:09:41.411Z,100479.16
2023-02-19T15:12:20.164Z,100464.44
2023-02-19T15:14:53.481Z,100472.81
2023-02-19T15:17:27.488Z,100484.19
2023-02-19T15:20:03.612Z,100480.81
2023-02-19T15:22:32.895Z,100477.31
2023-02-19T15:25:03.013Z,100479.81
2023-02-19T15:27:32.936Z,100493.84
2023-02-19T15:30:00.647Z,100488.16
2023-02-19T15:32:28.313Z,100483.09
2023-02-19T15:34:57.242Z,100493.47
2023-02-19T15:37:27.042Z,100487.41
2023-02-19T15:39:56.073Z,100493.44
2023-02-19T15:42:28.483Z,100496.09
2023-02-19T15:44:58.854Z,100489.09
2023-02-19T15:47:49.267Z,100493.75
2023-02-19T15:50:25.426Z,100490.91
2023-02-19T15:53:15.743Z,100501.81
2023-02-19T15:56:04.742Z,100499.34
2023-02-19T15:58:35.209Z,100498.69
2023-02-19T16:01:05.190Z,100493.16
2023-02-19T16:03:33.286Z,100484.66
2023-02-19T16:06:17.420Z,100498.19
2023-02-19T16:09:07.594Z,100501.69
2023-02-19T16:11:50.185Z,100495.53
2023-02-19T16:14:36.788Z,100495.22
2023-02-19T16:17:10.333Z,100504.25
2023-02-19T16:19:50.004Z,100505.91
2023-02-19T16:22:19.971Z,100505.22
2023-02-19T16:24:58.154Z,100508.72
2023-02-19T16:27:37.144Z,100510.94
2023-02-19T16:30:34.714Z,100517.63
2023-02-19T16:33:37.490Z,100512.78
2023-02-19T16:36:20.222Z,100507.25
2023-02-19T16:39:07.038Z,100518.63
2023-02-19T16:41:40.787Z,100517.78
2023-02-19T16:44:32.572Z,100513.28
2023-02-19T16:47:03.843Z,100518.78
2023-02-19T16:49:31.728Z,100524.00
2023-02-19T16:52:04.497Z,100515.78
2023-02-19T16:54:32.271Z,100517.97
2023-02-19T16:57:00.097Z,100519.66
2023-02-19T16:59:28.117Z,100510.28
2023-02-19T17:01:56.468Z,100518.94
2023-02-19T17:04:24.485Z,100523.97
2023-02-19T17:06:55.851Z,100523.97
2023-02-19T17:09:23.403Z,100524.44
2023-02-19T17:11:51.071Z,100530.94
2023-02-19T17:14:19.652Z,100543.63
2023-02-19T17:16:47.307Z,100531.53
2023-02-19T17:19:19.956Z,100531.00
2023-02-19T17:21:47.836Z,100526.13
2023-02-19T17:24:20.851Z,100541.31
2023-02-19T17:26:49.343Z,100533.53
2023-02-19T17:29:18.552Z,100530.16
2023-02-19T17:31:46.001Z,100530.16
2023-02-19T17:34:15.923Z,100534.28
2023-02-19T17:36:45.674Z,100526.50
2023-02-19T17:39:18.158Z,100534.78
2023-02-19T17:41:45.666Z,100541.84
2023-02-19T17:44:13.142Z,100542.22
2023-02-19T17:46:41.128Z,100549.94
2023-02-19T17:49:12.660Z,100544.97
2023-02-19T17:51:40.502Z,100542.72
2023-02-19T17:54:08.474Z,100541.50
2023-02-19T17:56:43.311Z,100539.50
2023-02-19T17:59:11.040Z,100536.78
2023-02-19T18:01:39.046Z,100537.75
2023-02-19T18:04:06.602Z,100536.88
2023-02-19T18:06:34.982Z,100547.13
2023-02-19T18:09:02.490Z,100548.78
2023-02-19T18:11:30.332Z,100555.00
2023-02-19T18:14:01.762Z,100546.84
2023-02-19T18:16:29.282Z,100551.53
2023-02-19T18:18:58.470Z,100558.59
2023-02-19T18:21:26.043Z,100560.13
2023-02-19T18:23:53.526Z,100553.94
2023-02-19T18:26:21.861Z,100558.28
2023-02-19T18:28:50.224Z,100558.63
2023-02-19T18:31:17.930Z,100563.19
2023-02-19T18:33:45.563Z,100564.09
2023-02-19T18:36:13.387Z,100560.81
2023-02-19T18:38:41.204Z,100566.31
2023-02-19T18:41:13.727Z,100567.59
2023-02-19T18:43:42.199Z,100562.75
2023-02-19T18:46:10.810Z,100564.78
2023-02-19T18:48:39.172Z,100567.16
2023-02-19T18:51:10.717Z,100573.66
2023-02-19T18:53:42.595Z,100584.31
2023-02-19T18:56:10.079Z,100578.91
2023-02-19T18:58:41.558Z,100579.91
2023-02-19T19:01:09.968Z,100579.84
2023-02-19T19:03:37.651Z,100583.63
2023-02-19T19:06:05.351Z,100589.41
2023-02-19T19:08:32.823Z,100576.97
2023-02-19T19:11:00.267Z,100581.44
2023-02-19T19:13:27.691Z,100580.47
2023-02-19T19:15:55.255Z,100581.09
2023-02-19T19:18:22.920Z,100574.09
2023-02-19T19:20:50.283Z,100584.13
2023-02-19T19:23:17.804Z,100565.13
2023-02-19T19:25:45.542Z,100562.31
2023-02-19T19:28:12.972Z,100573.97
2023-02-19T19:30:40.778Z,100560.34
2023-02-19T19:33:08.425Z,100557.56
2023-02-19T19:35:36.985Z,100549.22
2023-02-19T19:38:04.401Z,100547.81
2023-02-19T19:40:32.974Z,100532.41
2023-02-19T19:43:01.356Z,100545.34
2023-02-19T19:45:28.930Z,100554.53
2023-02-19T19:47:56.569Z,100553.44
2023-02-19T19:50:25.032Z,100560.41
2023-02-19T19:52:52.444Z,100550.78
2023-02-19T19:55:21.938Z,100543.06
2023-02-19T19:57:49.977Z,100551.47
2023-02-19T20:00:19.456Z,100557.69
2023-02-19T20:02:47.196Z,100565.88
2023-02-19T20:05:18.142Z,100572.28
2023-02-19T20:07:46.034Z,100566.91
2023-02-19T20:10:14.695Z,100555.66
2023-02-19T20:12:43.423Z,100550.41
2023-02-19T20:15:11.402Z,100542.50
2023-02-19T20:17:40.179Z,100542.28
2023-02-19T20:20:08.430Z,100537.50
2023-02-19T20:22:37.820Z,100534.56
2023-02-19T20:25:05.862Z,100531.47
2023-02-19T20:27:33.346Z,100536.53
2023-02-19T20:30:00.818Z,100540.88
2023-02-19T20:32:28.296Z,100540.16
2023-02-19T20:34:56.028Z,100537.44
2023-02-19T20:37:23.342Z,100544.56
2023-02-19T20:39:51.171Z,100542.41
2023-02-19T20:42:19.238Z,100543.97
2023-02-19T20:44:46.825Z,100539.41
2023-02-19T20:47:14.209Z,100531.75
2023-02-19T20:49:45.995Z,100526.41
2023-02-19T20:52:16.333Z,100533.72
2023-02-19T20:54:44.532Z,100535.59
2023-02-19T20:57:13.508Z,100541.66
2023-02-19T20:59:41.080Z,100539.50
2023-02-19T21:02:14.941Z,100543.09
2023-02-19T21:04:42.693Z,100546.84
2023-02-19T21:07:12.955Z,100540.13
2023-02-19T21:09:40.632Z,100544.56
2023-02-19T21:12:12.122Z,100546.22
2023-02-19T21:14:40.065Z,100539.03
2023-02-19T21:17:07.491Z,100542.69
2023-02-19T21:19:40.313Z,100538.13
2023-02-19T21:22:08.104Z,100542.13
2023-02-19T21:24:35.554Z,100545.09
2023-02-19T21:27:03.049Z,100535.53
2023-02-19T21:29:30.769Z,100538.25
2023-02-19T21:31:58.888Z,100534.66
2023-02-19T21:34:29.337Z,100532.03
2023-02-19T21:36:57.456Z,100539.03
2023-02-19T21:39:27.489Z,100545.91
2023-02-19T21:41:55.016Z,100540.81
2023-02-19T21:44:22.415Z,100547.13
2023-02-19T21:46:51.087Z,100541.91
2023-02-19T21:49:18.826Z,100563.00
2023-02-19T21:51:48.686Z,100556.78
2023-02-19T21:54:25.266Z,100538.94
2023-02-19T21:56:53.750Z,100551.41
2023-02-19T21:59:22.717Z,100549.59
2023-02-19T22:01:50.827Z,100543.88
2023-02-19T22:04:21.992Z,100547.56
2023-02-19T22:06:49.432Z,100548.94
2023-02-19T22:09:17.612Z,100548.41
2023-02-19T22:11:45.601Z,100550.31
2023-02-19T22:14:13.051Z,100554.72
2023-02-19T22:16:41.559Z,100556.97
2023-02-19T22:19:09.806Z,100564.16
2023-02-19T22:21:43.214Z,100566.09
2023-02-19T22:24:16.732Z,100554.13
2023-02-19T22:26:46.576Z,100554.38
2023-02-19T22:29:15.595Z,100558.59
2023-02-19T22:31:43.709Z,100555.56
2023-02-19T22:34:11.493Z,100563.13
2023-02-19T22:36:39.842Z,100569.81
2023-02-19T22:39:27.572Z,100575.19
2023-02-19T22:41:55.012Z,100572.41
2023-02-19T22:44:22.768Z,100572.72
2023-02-19T22:46:55.416Z,100575.50
2023-02-19T22:49:23.644Z,100569.13
2023-02-19T22:51:58.672Z,100570.63
2023-02-19T22:54:27.163Z,100568.28
2023-02-19T22:56:55.649Z,100566.88
2023-02-19T22:59:24.041Z,100566.75
2023-02-19T23:01:52.447Z,100565.19
2023-02-19T23:04:21.918Z,100563.53
2023-02-19T23:06:50.388Z,100569.69
2023-02-19T23:09:19.284Z,100574.03
2023-02-19T23:11:47.549Z,100570.06
2023-02-19T23:14:19.905Z,100570.66
2023-02-19T23:16:47.572Z,100575.81
2023-02-19T23:19:18.791Z,100575.97
2023-02-19T23:21:46.486Z,100584.38
2023-02-19T23:24:14.530Z,100583.81
2023-02-19T23:26:50.871Z,100597.38
2023-02-19T23:29:21.001Z,100597.69
2023-02-19T23:31:48.699Z,100593.75
2023-02-19T23:34:17.530Z,100600.44
2023-02-19T23:36:47.733Z,100594.31
2023-02-19T23:39:18.922Z,100590.25
2023-02-19T23:41:53.563Z,100580.84
2023-02-19T23:44:23.866Z,100570.22
2023-02-19T23:46:52.606Z,100568.28
2023-02-19T23:49:21.407Z,100555.97
2023-02-19T23:51:49.018Z,100546.72
2023-02-19T23:54:16.437Z,100560.72
2023-02-19T23:56:44.163Z,100551.63
2023-02-19T23:59:12.643Z,100569.97
